Time,TemperatureF,DewpointF,PressureIn,WindDirection,WindDirectionDegrees,WindSpeedMPH,WindSpeedGustMPH,Humidity,HourlyPrecipIn,Conditions,Clouds,dailyrainin,SoftwareType,DateUTC
2013-04-11 00:02:00,20.0,5.0,29.99,North,358,2.0,3.0,51,0.00,,,0.23,,2013-04-11 06:02:00,
2013-04-11 00:12:00,20.0,5.0,29.99,North,358,2.0,3.0,51,0.00,,,0.23,,2013-04-11 06:12:00,
2013-04-11 00:21:00,20.0,6.0,29.99,North,1,0.0,0.0,53,0.00,,,0.23,,2013-04-11 06:21:00,
2013-04-11 00:32:00,19.0,6.0,29.99,NNW,332,2.0,3.0,56,0.00,,,0.23,,2013-04-11 06:32:00,
2013-04-11 00:41:00,19.0,6.0,29.99,NNW,332,2.0,3.0,56,0.00,,,0.23,,2013-04-11 06:41:00,
2013-04-11 00:52:00,19.0,6.0,29.99,NNW,348,0.0,0.0,57,0.00,,,0.23,,2013-04-11 06:52:00,
2013-04-11 01:02:00,19.0,7.0,29.99,NNW,348,0.0,0.0,58,0.00,,,0.23,,2013-04-11 07:02:00,
2013-04-11 01:11:00,19.0,7.0,29.99,NNW,348,0.0,0.0,58,0.00,,,0.23,,2013-04-11 07:11:00,
2013-04-11 01:21:00,20.0,7.0,29.98,NNW,347,1.0,1.0,56,0.00,,,0.23,,2013-04-11 07:21:00,
2013-04-11 01:31:00,20.0,6.0,29.98,NNW,345,0.0,0.0,55,0.00,,,0.23,,2013-04-11 07:31:00,
2013-04-11 01:42:00,20.0,6.0,29.98,NNW,345,0.0,0.0,55,0.00,,,0.23,,2013-04-11 07:42:00,
2013-04-11 01:52:00,20.0,8.0,29.98,NNW,348,0.0,3.0,58,0.00,,,0.23,,2013-04-11 07:52:00,
2013-04-11 02:02:00,20.0,9.0,29.99,ESE,117,2.0,3.0,62,0.00,,,0.23,,2013-04-11 08:02:00,
2013-04-11 02:11:00,20.0,9.0,29.99,ESE,117,2.0,3.0,62,0.00,,,0.23,,2013-04-11 08:11:00,
2013-04-11 02:21:00,18.0,9.0,29.98,WSW,256,3.0,5.0,68,0.00,,,0.23,,2013-04-11 08:21:00,
2013-04-11 02:32:00,18.0,9.0,29.98,NW,316,1.0,2.0,66,0.00,,,0.23,,2013-04-11 08:32:00,
2013-04-11 02:41:00,18.0,9.0,29.98,NW,316,1.0,2.0,66,0.00,,,0.23,,2013-04-11 08:41:00,
2013-04-11 02:51:00,18.0,10.0,29.98,North,1,0.0,0.0,71,0.00,,,0.23,,2013-04-11 08:51:00,
2013-04-11 03:01:00,18.0,9.0,29.98,North,1,0.0,0.0,67,0.00,,,0.23,,2013-04-11 09:01:00,
2013-04-11 03:11:00,17.0,9.0,29.98,North,1,0.0,0.0,69,0.00,,,0.23,,2013-04-11 09:11:00,
2013-04-11 03:22:00,17.0,9.0,29.98,North,1,0.0,0.0,69,0.00,,,0.23,,2013-04-11 09:22:00,
2013-04-11 03:32:00,17.0,10.0,29.97,North,10,0.0,2.0,72,0.00,,,0.23,,2013-04-11 09:32:00,
2013-04-11 03:42:00,17.0,10.0,29.97,North,10,0.0,2.0,72,0.00,,,0.23,,2013-04-11 09:42:00,
2013-04-11 03:52:00,17.0,9.0,29.97,NNE,15,3.0,3.0,71,0.00,,,0.23,,2013-04-11 09:52:00,
2013-04-11 04:02:00,17.0,10.0,29.96,North,0,3.0,3.0,72,0.00,,,0.23,,2013-04-11 10:02:00,
2013-04-11 04:12:00,17.0,9.0,29.96,North,354,3.0,3.0,71,0.00,,,0.23,,2013-04-11 10:12:00,
2013-04-11 04:22:00,17.0,9.0,29.96,North,354,3.0,3.0,71,0.00,,,0.23,,2013-04-11 10:22:00,
2013-04-11 04:32:00,17.0,9.0,29.97,NNW,331,3.0,5.0,71,0.00,,,0.23,,2013-04-11 10:32:00,
2013-04-11 04:41:00,17.0,9.0,29.97,NNW,331,3.0,5.0,71,0.00,,,0.23,,2013-04-11 10:41:00,
2013-04-11 04:52:00,17.0,10.0,29.97,North,354,3.0,3.0,75,0.00,,,0.23,,2013-04-11 10:52:00,
2013-04-11 05:02:00,17.0,10.0,29.97,North,354,3.0,3.0,75,0.00,,,0.23,,2013-04-11 11:02:00,
2013-04-11 05:11:00,18.0,11.0,29.96,NNW,343,3.0,3.0,72,0.00,,,0.23,,2013-04-11 11:11:00,
2013-04-11 05:22:00,19.0,11.0,29.96,NNW,332,5.0,7.0,71,0.00,,,0.23,,2013-04-11 11:22:00,
2013-04-11 05:32:00,20.0,12.0,29.96,North,4,3.0,5.0,72,0.00,,,0.23,,2013-04-11 11:32:00,
2013-04-11 05:42:00,19.0,12.0,29.96,North,9,0.0,0.0,73,0.00,,,0.23,,2013-04-11 11:42:00,
2013-04-11 05:52:00,19.0,12.0,29.96,North,9,0.0,0.0,73,0.00,,,0.23,,2013-04-11 11:52:00,
2013-04-11 06:02:00,19.0,12.0,29.95,North,0,3.0,3.0,74,0.00,,,0.23,,2013-04-11 12:02:00,
2013-04-11 06:12:00,19.0,12.0,29.96,North,10,3.0,3.0,73,0.00,,,0.23,,2013-04-11 12:12:00,
2013-04-11 06:22:00,19.0,12.0,29.96,North,10,3.0,3.0,73,0.00,,,0.23,,2013-04-11 12:22:00,
2013-04-11 06:32:00,20.0,13.0,29.96,North,349,3.0,3.0,73,0.00,,,0.23,,2013-04-11 12:32:00,
2013-04-11 06:42:00,20.0,13.0,29.96,North,349,3.0,3.0,73,0.00,,,0.23,,2013-04-11 12:42:00,
2013-04-11 06:52:00,21.0,13.0,29.96,North,357,3.0,5.0,72,0.00,,,0.23,,2013-04-11 12:52:00,
2013-04-11 07:02:00,22.0,14.0,29.96,North,352,6.0,8.0,70,0.00,,,0.23,,2013-04-11 13:02:00,
2013-04-11 07:12:00,22.0,14.0,29.96,North,349,5.0,5.0,70,0.00,,,0.23,,2013-04-11 13:12:00,
2013-04-11 07:22:00,22.0,14.0,29.96,North,349,5.0,5.0,70,0.00,,,0.23,,2013-04-11 13:22:00,
2013-04-11 07:32:00,22.0,13.0,29.97,North,352,3.0,5.0,68,0.00,,,0.23,,2013-04-11 13:32:00,
2013-04-11 07:42:00,22.0,13.0,29.97,North,352,3.0,5.0,68,0.00,,,0.23,,2013-04-11 13:42:00,
2013-04-11 07:52:00,23.0,15.0,29.97,North,10,1.0,1.0,70,0.00,,,0.23,,2013-04-11 13:52:00,
2013-04-11 08:02:00,25.0,15.0,29.97,North,10,1.0,2.0,65,0.00,,,0.23,,2013-04-11 14:02:00,
2013-04-11 08:12:00,29.0,18.0,29.98,North,10,2.0,3.0,62,0.00,,,0.23,,2013-04-11 14:12:00,
2013-04-11 08:21:00,29.0,18.0,29.98,North,10,2.0,3.0,62,0.00,,,0.23,,2013-04-11 14:21:00,
2013-04-11 08:32:00,31.0,18.0,29.98,North,11,1.0,3.0,57,0.00,,,0.23,,2013-04-11 14:32:00,
2013-04-11 08:41:00,31.0,18.0,29.98,North,11,1.0,3.0,57,0.00,,,0.23,,2013-04-11 14:41:00,
2013-04-11 08:52:00,31.0,18.0,29.98,North,11,1.0,3.0,57,0.00,,,0.23,,2013-04-11 14:52:00,
2013-04-11 09:02:00,36.0,23.0,29.98,NE,47,1.0,5.0,59,0.00,,,0.23,,2013-04-11 15:02:00,
2013-04-11 09:11:00,37.0,22.0,29.98,ENE,72,2.0,5.0,55,0.00,,,0.23,,2013-04-11 15:11:00,
2013-04-11 09:32:00,38.0,23.0,29.98,East,89,2.0,3.0,54,0.00,,,0.23,,2013-04-11 15:32:00,
2013-04-11 09:42:00,38.0,24.0,29.97,ESE,103,3.0,3.0,56,0.00,,,0.23,,2013-04-11 15:42:00,
2013-04-11 10:02:00,39.0,24.0,29.97,ESE,103,3.0,5.0,55,0.00,,,0.23,,2013-04-11 16:02:00,
2013-04-11 10:32:00,41.0,25.0,29.98,ESE,121,2.0,5.0,53,0.00,,,0.23,,2013-04-11 16:32:00,
2013-04-11 10:41:00,42.0,26.0,29.98,ESE,121,3.0,6.0,53,0.00,,,0.23,,2013-04-11 16:41:00,
2013-04-11 11:02:00,42.0,27.0,29.98,ESE,121,5.0,7.0,56,0.00,,,0.22,,2013-04-11 17:02:00,
2013-04-11 11:11:00,42.0,27.0,29.98,ESE,121,5.0,7.0,56,0.00,,,0.22,,2013-04-11 17:11:00,
2013-04-11 11:22:00,42.0,27.0,29.98,SE,130,3.0,5.0,56,0.00,,,0.22,,2013-04-11 17:22:00,
2013-04-11 11:32:00,42.0,27.0,29.98,SE,144,2.0,5.0,55,0.00,,,0.16,,2013-04-11 17:32:00,
2013-04-11 11:42:00,42.0,27.0,29.98,SE,144,2.0,5.0,55,0.00,,,0.16,,2013-04-11 17:42:00,
2013-04-11 11:52:00,44.0,28.0,29.98,SE,141,3.0,8.0,54,0.00,,,0.14,,2013-04-11 17:52:00,
2013-04-11 12:02:00,44.0,28.0,29.98,SSE,147,2.0,3.0,53,0.00,,,0.12,,2013-04-11 18:02:00,
2013-04-11 12:22:00,45.0,28.0,29.98,SSE,148,5.0,7.0,51,0.00,,,0.11,,2013-04-11 18:22:00,
2013-04-11 12:32:00,46.0,28.0,29.98,SSE,166,5.0,7.0,49,0.00,,,0.09,,2013-04-11 18:32:00,
2013-04-11 12:52:00,47.0,28.0,29.98,SSE,148,5.0,6.0,48,0.00,,,0.08,,2013-04-11 18:52:00,
2013-04-11 13:03:00,50.0,29.0,29.98,SE,136,7.0,9.0,45,0.00,,,0.07,,2013-04-11 19:03:00,
2013-04-11 13:13:00,50.0,29.0,29.98,SE,136,7.0,9.0,45,0.00,,,0.07,,2013-04-11 19:13:00,
2013-04-11 13:21:00,51.0,30.0,29.97,ESE,121,3.0,5.0,45,0.00,,,0.06,,2013-04-11 19:21:00,
2013-04-11 13:32:00,52.0,31.0,29.97,South,170,5.0,6.0,45,0.00,,,0.05,,2013-04-11 19:32:00,
2013-04-11 13:52:00,53.0,32.0,29.97,ESE,117,6.0,9.0,44,0.00,,,0.05,,2013-04-11 19:52:00,
2013-04-11 14:02:00,54.0,33.0,29.97,SSE,153,3.0,5.0,44,0.00,,,0.04,,2013-04-11 20:02:00,
2013-04-11 14:12:00,55.0,33.0,29.97,SSE,156,5.0,7.0,43,0.00,,,0.04,,2013-04-11 20:12:00,
2013-04-11 14:33:00,54.0,31.0,29.96,SSE,151,3.0,6.0,42,0.00,,,0.03,,2013-04-11 20:33:00,
2013-04-11 15:02:00,47.0,26.0,29.97,NNW,341,6.0,7.0,43,0.00,,,0.02,,2013-04-11 21:02:00,
2013-04-11 15:11:00,47.0,26.0,29.97,NNW,341,6.0,7.0,43,0.00,,,0.02,,2013-04-11 21:11:00,
2013-04-11 15:21:00,50.0,29.0,29.96,SE,133,9.0,10.0,44,0.00,,,0.02,,2013-04-11 21:21:00,
2013-04-11 15:32:00,47.0,26.0,29.96,NNE,29,1.0,2.0,44,0.00,,,0.01,,2013-04-11 21:32:00,
2013-04-11 16:02:00,44.0,25.0,29.97,NNE,18,6.0,12.0,47,0.00,,,0.00,,2013-04-11 22:02:00,
2013-04-11 16:12:00,44.0,25.0,29.97,NNE,18,6.0,12.0,47,0.00,,,0.00,,2013-04-11 22:12:00,
2013-04-11 16:22:00,44.0,25.0,29.96,WNW,284,1.0,3.0,47,0.01,,,0.01,,2013-04-11 22:22:00,
2013-04-11 16:32:00,49.0,24.0,29.96,NNE,17,6.0,9.0,37,0.01,,,0.01,,2013-04-11 22:32:00,
2013-04-11 17:03:00,47.0,20.0,29.95,NE,53,3.0,3.0,34,0.01,,,0.01,,2013-04-11 23:03:00,
2013-04-11 17:11:00,47.0,20.0,29.95,NE,53,3.0,3.0,34,0.01,,,0.01,,2013-04-11 23:11:00,
2013-04-11 17:22:00,45.0,18.0,29.96,North,351,7.0,10.0,33,0.00,,,0.01,,2013-04-11 23:22:00,
2013-04-11 17:32:00,46.0,17.0,29.96,NW,308,7.0,10.0,31,0.00,,,0.01,,2013-04-11 23:32:00,
2013-04-11 17:52:00,46.0,19.0,29.96,WNW,288,2.0,3.0,34,0.00,,,0.01,,2013-04-11 23:52:00,
2013-04-11 18:02:00,44.0,20.0,29.96,North,10,2.0,6.0,38,0.00,,,0.01,,2013-04-12 00:02:00,
2013-04-11 18:11:00,44.0,20.0,29.96,North,10,2.0,6.0,38,0.00,,,0.01,,2013-04-12 00:11:00,
2013-04-11 18:21:00,48.0,18.0,29.96,North,2,8.0,12.0,30,0.00,,,0.01,,2013-04-12 00:21:00,
2013-04-11 18:32:00,50.0,18.0,29.96,North,3,5.0,10.0,28,0.00,,,0.01,,2013-04-12 00:32:00,
2013-04-11 19:02:00,47.0,16.0,29.97,NW,313,3.0,5.0,29,0.00,,,0.01,,2013-04-12 01:02:00,
2013-04-11 19:11:00,47.0,16.0,29.97,NW,313,3.0,5.0,29,0.00,,,0.01,,2013-04-12 01:11:00,
2013-04-11 19:22:00,40.0,17.0,29.97,NNW,337,3.0,8.0,39,0.00,,,0.01,,2013-04-12 01:22:00,
2013-04-11 19:32:00,37.0,16.0,29.97,NNW,331,3.0,6.0,41,0.00,,,0.01,,2013-04-12 01:32:00,
2013-04-11 19:52:00,36.0,16.0,29.98,NW,323,3.0,3.0,44,0.00,,,0.01,,2013-04-12 01:52:00,
2013-04-11 20:02:00,35.0,16.0,29.98,NW,318,3.0,6.0,45,0.00,,,0.01,,2013-04-12 02:02:00,
2013-04-11 20:12:00,35.0,16.0,29.98,NW,318,3.0,6.0,45,0.00,,,0.01,,2013-04-12 02:12:00,
2013-04-11 20:22:00,34.0,15.0,29.98,NNW,340,3.0,6.0,46,0.00,,,0.01,,2013-04-12 02:22:00,
2013-04-11 20:32:00,33.0,15.0,29.98,NW,318,3.0,5.0,48,0.00,,,0.01,,2013-04-12 02:32:00,
2013-04-11 20:41:00,33.0,15.0,29.98,NW,318,3.0,5.0,48,0.00,,,0.01,,2013-04-12 02:41:00,
2013-04-11 20:52:00,33.0,14.0,29.98,NW,314,3.0,5.0,45,0.00,,,0.01,,2013-04-12 02:52:00,
2013-04-11 21:01:00,32.0,14.0,29.99,NNE,15,3.0,3.0,46,0.00,,,0.01,,2013-04-12 03:01:00,
2013-04-11 21:11:00,32.0,14.0,29.99,NNE,15,3.0,3.0,46,0.00,,,0.01,,2013-04-12 03:11:00,
2013-04-11 21:21:00,32.0,13.0,29.99,North,351,3.0,3.0,45,0.00,,,0.01,,2013-04-12 03:21:00,
2013-04-11 21:33:00,31.0,14.0,30.00,NNE,17,3.0,3.0,49,0.00,,,0.01,,2013-04-12 03:33:00,
2013-04-11 21:43:00,31.0,14.0,30.00,NNE,17,3.0,3.0,49,0.00,,,0.01,,2013-04-12 03:43:00,
2013-04-11 21:52:00,31.0,15.0,30.00,North,353,3.0,5.0,51,0.00,,,0.01,,2013-04-12 03:52:00,
2013-04-11 22:02:00,31.0,15.0,30.00,NNE,21,3.0,3.0,52,0.00,,,0.01,,2013-04-12 04:02:00,
2013-04-11 22:12:00,31.0,15.0,30.00,NNE,21,3.0,3.0,52,0.00,,,0.01,,2013-04-12 04:12:00,
2013-04-11 22:22:00,30.0,15.0,30.01,NNE,27,3.0,3.0,52,0.00,,,0.01,,2013-04-12 04:22:00,
2013-04-11 22:33:00,30.0,15.0,30.01,North,4,3.0,5.0,53,0.00,,,0.01,,2013-04-12 04:33:00,
2013-04-11 22:42:00,30.0,15.0,30.01,North,4,3.0,5.0,53,0.00,,,0.01,,2013-04-12 04:42:00,
2013-04-11 22:52:00,30.0,16.0,30.01,North,356,3.0,3.0,55,0.00,,,0.01,,2013-04-12 04:52:00,
2013-04-11 23:02:00,30.0,15.0,30.01,North,353,6.0,8.0,54,0.00,,,0.01,,2013-04-12 05:02:00,
2013-04-11 23:11:00,30.0,15.0,30.01,North,353,6.0,8.0,54,0.00,,,0.01,,2013-04-12 05:11:00,
2013-04-11 23:22:00,29.0,15.0,30.01,North,4,5.0,7.0,55,0.00,,,0.01,,2013-04-12 05:22:00,
2013-04-11 23:32:00,29.0,15.0,30.01,North,1,5.0,5.0,56,0.00,,,0.01,,2013-04-12 05:32:00,
2013-04-11 23:42:00,29.0,15.0,30.01,North,1,5.0,5.0,56,0.00,,,0.01,,2013-04-12 05:42:00,
2013-04-11 23:52:00,28.0,15.0,30.02,North,0,2.0,3.0,57,0.00,,,0.01,,2013-04-12 05:52:00,